sensor_id;sensor_type;location;lat;lon;timestamp;temperature;humidity
5059;DHT22;2548;52.050;11.036;2023-06-04T00:00:38;8.90;99.90
5059;DHT22;2548;52.050;11.036;2023-06-04T00:03:06;8.90;99.90
5059;DHT22;2548;52.050;11.036;2023-06-04T00:05:34;8.90;99.90
5059;DHT22;2548;52.050;11.036;2023-06-04T00:08:02;8.90;99.90
5059;DHT22;2548;52.050;11.036;2023-06-04T00:10:32;8.90;99.90
5059;DHT22;2548;52.050;11.036;2023-06-04T00:13:03;8.80;99.90
5059;DHT22;2548;52.050;11.036;2023-06-04T00:15:30;8.80;99.90
5059;DHT22;2548;52.050;11.036;2023-06-04T00:17:58;8.80;99.90
5059;DHT22;2548;52.050;11.036;2023-06-04T00:20:29;8.80;99.90
5059;DHT22;2548;52.050;11.036;2023-06-04T00:22:57;8.80;99.90
5059;DHT22;2548;52.050;11.036;2023-06-04T00:25:25;8.80;99.90
5059;DHT22;2548;52.050;11.036;2023-06-04T00:27:52;8.80;99.90
5059;DHT22;2548;52.050;11.036;2023-06-04T00:30:22;8.70;99.90
5059;DHT22;2548;52.050;11.036;2023-06-04T00:32:52;8.70;99.90
5059;DHT22;2548;52.050;11.036;2023-06-04T00:35:20;8.70;99.90
5059;DHT22;2548;52.050;11.036;2023-06-04T00:37:50;8.70;99.90
5059;DHT22;2548;52.050;11.036;2023-06-04T00:40:19;8.70;99.90
5059;DHT22;2548;52.050;11.036;2023-06-04T00:42:47;8.70;99.90
5059;DHT22;2548;52.050;11.036;2023-06-04T00:45:15;8.70;99.90
5059;DHT22;2548;52.050;11.036;2023-06-04T00:47:49;8.70;99.90
5059;DHT22;2548;52.050;11.036;2023-06-04T00:50:17;8.70;99.90
5059;DHT22;2548;52.050;11.036;2023-06-04T00:52:50;8.70;99.90
5059;DHT22;2548;52.050;11.036;2023-06-04T00:55:22;8.70;99.90
5059;DHT22;2548;52.050;11.036;2023-06-04T00:57:53;8.60;99.90
5059;DHT22;2548;52.050;11.036;2023-06-04T01:00:21;8.60;99.90
5059;DHT22;2548;52.050;11.036;2023-06-04T01:02:49;8.60;99.90
5059;DHT22;2548;52.050;11.036;2023-06-04T01:05:24;8.50;99.90
5059;DHT22;2548;52.050;11.036;2023-06-04T01:07:56;8.40;99.90
5059;DHT22;2548;52.050;11.036;2023-06-04T01:10:31;8.40;99.90
5059;DHT22;2548;52.050;11.036;2023-06-04T01:13:01;8.30;99.90
5059;DHT22;2548;52.050;11.036;2023-06-04T01:15:39;8.30;99.90
5059;DHT22;2548;52.050;11.036;2023-06-04T01:18:09;8.20;99.90
5059;DHT22;2548;52.050;11.036;2023-06-04T01:20:40;8.10;99.90
5059;DHT22;2548;52.050;11.036;2023-06-04T01:23:28;7.90;99.90
5059;DHT22;2548;52.050;11.036;2023-06-04T01:26:02;7.90;99.90
5059;DHT22;2548;52.050;11.036;2023-06-04T01:28:35;7.80;99.90
5059;DHT22;2548;52.050;11.036;2023-06-04T01:31:08;7.80;99.90
5059;DHT22;2548;52.050;11.036;2023-06-04T01:33:36;7.70;99.90
5059;DHT22;2548;52.050;11.036;2023-06-04T01:36:03;7.70;99.90
5059;DHT22;2548;52.050;11.036;2023-06-04T01:38:32;7.60;99.90
5059;DHT22;2548;52.050;11.036;2023-06-04T01:41:03;7.60;99.90
5059;DHT22;2548;52.050;11.036;2023-06-04T01:43:31;7.50;99.90
5059;DHT22;2548;52.050;11.036;2023-06-04T01:46:01;7.50;99.90
5059;DHT22;2548;52.050;11.036;2023-06-04T01:48:35;7.50;99.90
5059;DHT22;2548;52.050;11.036;2023-06-04T01:51:06;7.50;99.90
5059;DHT22;2548;52.050;11.036;2023-06-04T01:53:45;7.50;99.90
5059;DHT22;2548;52.050;11.036;2023-06-04T01:56:20;7.50;99.90
5059;DHT22;2548;52.050;11.036;2023-06-04T01:58:48;7.50;99.90
5059;DHT22;2548;52.050;11.036;2023-06-04T02:01:15;7.50;99.90
5059;DHT22;2548;52.050;11.036;2023-06-04T02:03:46;7.50;99.90
5059;DHT22;2548;52.050;11.036;2023-06-04T02:06:16;7.50;99.90
5059;DHT22;2548;52.050;11.036;2023-06-04T02:08:53;7.60;99.90
5059;DHT22;2548;52.050;11.036;2023-06-04T02:11:32;7.60;99.90
5059;DHT22;2548;52.050;11.036;2023-06-04T02:14:02;7.60;99.90
5059;DHT22;2548;52.050;11.036;2023-06-04T02:16:29;7.50;99.90
5059;DHT22;2548;52.050;11.036;2023-06-04T02:19:02;7.40;99.90
5059;DHT22;2548;52.050;11.036;2023-06-04T02:21:32;7.30;99.90
5059;DHT22;2548;52.050;11.036;2023-06-04T02:24:01;7.20;99.90
5059;DHT22;2548;52.050;11.036;2023-06-04T02:26:33;7.20;99.90
5059;DHT22;2548;52.050;11.036;2023-06-04T02:29:00;7.20;99.90
5059;DHT22;2548;52.050;11.036;2023-06-04T02:31:31;7.10;99.90
5059;DHT22;2548;52.050;11.036;2023-06-04T02:33:59;7.10;99.90
5059;DHT22;2548;52.050;11.036;2023-06-04T02:36:29;7.10;99.90
5059;DHT22;2548;52.050;11.036;2023-06-04T02:38:56;7.10;99.90
5059;DHT22;2548;52.050;11.036;2023-06-04T02:41:24;7.10;99.90
5059;DHT22;2548;52.050;11.036;2023-06-04T02:43:55;7.00;99.90
5059;DHT22;2548;52.050;11.036;2023-06-04T02:46:23;7.00;99.90
5059;DHT22;2548;52.050;11.036;2023-06-04T02:48:53;7.00;99.90
5059;DHT22;2548;52.050;11.036;2023-06-04T02:51:21;7.00;99.90
5059;DHT22;2548;52.050;11.036;2023-06-04T02:53:51;7.00;99.90
5059;DHT22;2548;52.050;11.036;2023-06-04T02:56:19;7.00;99.90
5059;DHT22;2548;52.050;11.036;2023-06-04T02:58:55;7.00;99.90
5059;DHT22;2548;52.050;11.036;2023-06-04T03:01:24;6.90;99.90
5059;DHT22;2548;52.050;11.036;2023-06-04T03:03:52;6.80;99.90
5059;DHT22;2548;52.050;11.036;2023-06-04T03:06:22;6.80;99.90
5059;DHT22;2548;52.050;11.036;2023-06-04T03:08:52;6.80;99.90
5059;DHT22;2548;52.050;11.036;2023-06-04T03:11:20;6.70;99.90
5059;DHT22;2548;52.050;11.036;2023-06-04T03:13:48;6.60;99.90
5059;DHT22;2548;52.050;11.036;2023-06-04T03:16:19;6.60;99.90
5059;DHT22;2548;52.050;11.036;2023-06-04T03:18:49;6.60;99.90
5059;DHT22;2548;52.050;11.036;2023-06-04T03:21:20;6.60;99.90
5059;DHT22;2548;52.050;11.036;2023-06-04T03:23:48;6.50;99.90
5059;DHT22;2548;52.050;11.036;2023-06-04T03:26:16;6.40;99.90
5059;DHT22;2548;52.050;11.036;2023-06-04T03:28:43;6.50;99.90
5059;DHT22;2548;52.050;11.036;2023-06-04T03:31:14;6.50;99.90
5059;DHT22;2548;52.050;11.036;2023-06-04T03:33:43;6.50;99.90
5059;DHT22;2548;52.050;11.036;2023-06-04T03:36:11;6.50;99.90
5059;DHT22;2548;52.050;11.036;2023-06-04T03:38:39;6.50;99.90
5059;DHT22;2548;52.050;11.036;2023-06-04T03:41:08;6.50;99.90
5059;DHT22;2548;52.050;11.036;2023-06-04T03:43:36;6.50;99.90
5059;DHT22;2548;52.050;11.036;2023-06-04T03:46:06;6.50;99.90
5059;DHT22;2548;52.050;11.036;2023-06-04T03:48:34;6.50;99.90
5059;DHT22;2548;52.050;11.036;2023-06-04T03:51:03;6.50;99.90
5059;DHT22;2548;52.050;11.036;2023-06-04T03:53:30;6.50;99.90
5059;DHT22;2548;52.050;11.036;2023-06-04T03:55:58;6.50;99.90
5059;DHT22;2548;52.050;11.036;2023-06-04T03:58:29;6.50;99.90
5059;DHT22;2548;52.050;11.036;2023-06-04T04:00:57;6.60;99.90
5059;DHT22;2548;52.050;11.036;2023-06-04T04:03:25;6.60;99.90
5059;DHT22;2548;52.050;11.036;2023-06-04T04:05:58;6.60;99.90
5059;DHT22;2548;52.050;11.036;2023-06-04T04:08:34;6.70;99.90
5059;DHT22;2548;52.050;11.036;2023-06-04T04:11:08;6.70;99.90
5059;DHT22;2548;52.050;11.036;2023-06-04T04:13:38;6.80;99.90
5059;DHT22;2548;52.050;11.036;2023-06-04T04:16:06;6.80;99.90
5059;DHT22;2548;52.050;11.036;2023-06-04T04:18:35;6.80;99.90
5059;DHT22;2548;52.050;11.036;2023-06-04T04:21:03;6.90;99.90
5059;DHT22;2548;52.050;11.036;2023-06-04T04:23:33;6.90;99.90
5059;DHT22;2548;52.050;11.036;2023-06-04T04:26:01;7.00;99.90
5059;DHT22;2548;52.050;11.036;2023-06-04T04:28:32;7.00;99.90
5059;DHT22;2548;52.050;11.036;2023-06-04T04:31:01;7.10;99.90
5059;DHT22;2548;52.050;11.036;2023-06-04T04:33:38;7.20;99.90
5059;DHT22;2548;52.050;11.036;2023-06-04T04:36:11;7.20;99.90
5059;DHT22;2548;52.050;11.036;2023-06-04T04:38:45;7.30;99.90
5059;DHT22;2548;52.050;11.036;2023-06-04T04:41:12;7.40;99.90
5059;DHT22;2548;52.050;11.036;2023-06-04T04:43:41;7.50;99.90
5059;DHT22;2548;52.050;11.036;2023-06-04T04:46:18;7.50;99.90
5059;DHT22;2548;52.050;11.036;2023-06-04T04:48:52;7.60;99.90
5059;DHT22;2548;52.050;11.036;2023-06-04T04:51:23;7.60;99.90
5059;DHT22;2548;52.050;11.036;2023-06-04T04:53:57;7.70;99.90
5059;DHT22;2548;52.050;11.036;2023-06-04T04:56:32;7.70;99.90
5059;DHT22;2548;52.050;11.036;2023-06-04T04:59:00;7.80;99.90
5059;DHT22;2548;52.050;11.036;2023-06-04T05:01:27;7.90;99.90
5059;DHT22;2548;52.050;11.036;2023-06-04T05:03:55;8.00;99.90
5059;DHT22;2548;52.050;11.036;2023-06-04T05:06:23;8.10;99.90
5059;DHT22;2548;52.050;11.036;2023-06-04T05:08:55;8.20;99.90
5059;DHT22;2548;52.050;11.036;2023-06-04T05:11:28;8.20;99.90
5059;DHT22;2548;52.050;11.036;2023-06-04T05:13:56;8.30;99.90
5059;DHT22;2548;52.050;11.036;2023-06-04T05:16:23;8.50;99.90
5059;DHT22;2548;52.050;11.036;2023-06-04T05:18:54;8.60;99.90
5059;DHT22;2548;52.050;11.036;2023-06-04T05:21:24;8.70;99.90
5059;DHT22;2548;52.050;11.036;2023-06-04T05:24:01;8.80;99.90
5059;DHT22;2548;52.050;11.036;2023-06-04T05:26:33;8.90;99.90
5059;DHT22;2548;52.050;11.036;2023-06-04T05:29:05;9.10;99.90
5059;DHT22;2548;52.050;11.036;2023-06-04T05:31:42;9.20;99.90
5059;DHT22;2548;52.050;11.036;2023-06-04T05:34:12;9.30;99.90
5059;DHT22;2548;52.050;11.036;2023-06-04T05:36:43;9.40;99.90
5059;DHT22;2548;52.050;11.036;2023-06-04T05:39:12;9.60;99.90
5059;DHT22;2548;52.050;11.036;2023-06-04T05:42:09;9.70;99.90
5059;DHT22;2548;52.050;11.036;2023-06-04T05:44:37;9.80;99.90
5059;DHT22;2548;52.050;11.036;2023-06-04T05:47:09;9.90;99.90
5059;DHT22;2548;52.050;11.036;2023-06-04T05:49:37;10.00;99.90
5059;DHT22;2548;52.050;11.036;2023-06-04T05:52:07;10.20;99.90
5059;DHT22;2548;52.050;11.036;2023-06-04T05:54:39;10.30;99.90
5059;DHT22;2548;52.050;11.036;2023-06-04T05:57:10;10.40;99.90
5059;DHT22;2548;52.050;11.036;2023-06-04T05:59:37;10.60;99.90
5059;DHT22;2548;52.050;11.036;2023-06-04T06:02:09;10.80;99.90
5059;DHT22;2548;52.050;11.036;2023-06-04T06:04:41;10.90;99.90
5059;DHT22;2548;52.050;11.036;2023-06-04T06:07:11;11.10;99.90
5059;DHT22;2548;52.050;11.036;2023-06-04T06:09:40;11.20;99.90
5059;DHT22;2548;52.050;11.036;2023-06-04T06:12:11;11.40;99.90
5059;DHT22;2548;52.050;11.036;2023-06-04T06:14:41;11.50;99.90
5059;DHT22;2548;52.050;11.036;2023-06-04T06:17:14;11.70;99.90
5059;DHT22;2548;52.050;11.036;2023-06-04T06:19:41;11.80;99.90
5059;DHT22;2548;52.050;11.036;2023-06-04T06:22:09;12.00;99.90
5059;DHT22;2548;52.050;11.036;2023-06-04T06:24:39;12.20;99.90
5059;DHT22;2548;52.050;11.036;2023-06-04T06:27:11;12.40;99.90
5059;DHT22;2548;52.050;11.036;2023-06-04T06:29:43;12.50;99.90
5059;DHT22;2548;52.050;11.036;2023-06-04T06:32:11;12.70;99.90
5059;DHT22;2548;52.050;11.036;2023-06-04T06:34:38;12.80;99.90
5059;DHT22;2548;52.050;11.036;2023-06-04T06:37:09;13.00;99.90
5059;DHT22;2548;52.050;11.036;2023-06-04T06:39:39;13.10;99.90
5059;DHT22;2548;52.050;11.036;2023-06-04T06:42:09;13.40;99.90
5059;DHT22;2548;52.050;11.036;2023-06-04T06:44:40;13.50;99.90
5059;DHT22;2548;52.050;11.036;2023-06-04T06:47:08;13.70;99.90
5059;DHT22;2548;52.050;11.036;2023-06-04T06:49:36;13.80;99.90
5059;DHT22;2548;52.050;11.036;2023-06-04T06:52:04;14.00;99.90
5059;DHT22;2548;52.050;11.036;2023-06-04T06:54:32;14.20;99.90
5059;DHT22;2548;52.050;11.036;2023-06-04T06:57:02;14.40;99.90
5059;DHT22;2548;52.050;11.036;2023-06-04T06:59:36;14.50;99.90
5059;DHT22;2548;52.050;11.036;2023-06-04T07:02:04;14.70;99.90
5059;DHT22;2548;52.050;11.036;2023-06-04T07:04:32;14.90;99.90
5059;DHT22;2548;52.050;11.036;2023-06-04T07:06:59;15.00;99.90
5059;DHT22;2548;52.050;11.036;2023-06-04T07:09:27;15.20;99.90
5059;DHT22;2548;52.050;11.036;2023-06-04T07:12:04;15.30;99.90
5059;DHT22;2548;52.050;11.036;2023-06-04T07:14:36;15.40;99.90
5059;DHT22;2548;52.050;11.036;2023-06-04T07:17:07;15.60;99.90
5059;DHT22;2548;52.050;11.036;2023-06-04T07:19:34;15.70;99.90
5059;DHT22;2548;52.050;11.036;2023-06-04T07:22:11;15.90;99.90
5059;DHT22;2548;52.050;11.036;2023-06-04T07:24:38;16.10;99.90
5059;DHT22;2548;52.050;11.036;2023-06-04T07:27:10;16.30;99.90
5059;DHT22;2548;52.050;11.036;2023-06-04T07:29:44;16.40;99.90
5059;DHT22;2548;52.050;11.036;2023-06-04T07:32:12;16.60;99.90
5059;DHT22;2548;52.050;11.036;2023-06-04T07:34:43;16.80;99.90
5059;DHT22;2548;52.050;11.036;2023-06-04T07:37:11;17.00;99.90
5059;DHT22;2548;52.050;11.036;2023-06-04T07:39:40;17.20;99.90
5059;DHT22;2548;52.050;11.036;2023-06-04T07:42:07;17.30;99.90
5059;DHT22;2548;52.050;11.036;2023-06-04T07:44:40;17.40;99.90
5059;DHT22;2548;52.050;11.036;2023-06-04T07:47:11;17.60;99.90
5059;DHT22;2548;52.050;11.036;2023-06-04T07:49:42;17.80;99.90
5059;DHT22;2548;52.050;11.036;2023-06-04T07:52:09;17.80;99.90
5059;DHT22;2548;52.050;11.036;2023-06-04T07:54:44;17.90;99.90
5059;DHT22;2548;52.050;11.036;2023-06-04T07:57:11;18.10;99.90
5059;DHT22;2548;52.050;11.036;2023-06-04T07:59:44;18.30;99.90
5059;DHT22;2548;52.050;11.036;2023-06-04T08:02:20;18.40;99.90
5059;DHT22;2548;52.050;11.036;2023-06-04T08:04:51;18.60;99.90
5059;DHT22;2548;52.050;11.036;2023-06-04T08:07:19;18.60;99.90
5059;DHT22;2548;52.050;11.036;2023-06-04T08:09:46;18.70;99.90
5059;DHT22;2548;52.050;11.036;2023-06-04T08:12:14;18.90;99.90
5059;DHT22;2548;52.050;11.036;2023-06-04T08:14:42;18.90;99.90
5059;DHT22;2548;52.050;11.036;2023-06-04T08:17:10;19.10;99.90
5059;DHT22;2548;52.050;11.036;2023-06-04T08:19:41;19.10;99.90
5059;DHT22;2548;52.050;11.036;2023-06-04T08:22:09;19.10;98.40
5059;DHT22;2548;52.050;11.036;2023-06-04T08:24:39;19.20;99.50
5059;DHT22;2548;52.050;11.036;2023-06-04T08:27:06;19.30;97.30
5059;DHT22;2548;52.050;11.036;2023-06-04T08:29:34;19.50;97.80
5059;DHT22;2548;52.050;11.036;2023-06-04T08:32:03;19.70;96.90
5059;DHT22;2548;52.050;11.036;2023-06-04T08:34:30;19.80;96.60
5059;DHT22;2548;52.050;11.036;2023-06-04T08:36:59;20.00;96.70
5059;DHT22;2548;52.050;11.036;2023-06-04T08:39:27;20.20;96.00
5059;DHT22;2548;52.050;11.036;2023-06-04T08:41:58;20.30;95.30
5059;DHT22;2548;52.050;11.036;2023-06-04T08:44:27;20.40;93.60
5059;DHT22;2548;52.050;11.036;2023-06-04T08:49:27;20.70;92.80
5059;DHT22;2548;52.050;11.036;2023-06-04T08:52:02;20.80;92.30
5059;DHT22;2548;52.050;11.036;2023-06-04T08:54:32;20.70;91.30
5059;DHT22;2548;52.050;11.036;2023-06-04T08:57:03;20.70;91.80
5059;DHT22;2548;52.050;11.036;2023-06-04T08:59:35;20.70;90.40
5059;DHT22;2548;52.050;11.036;2023-06-04T09:02:04;20.60;91.00
5059;DHT22;2548;52.050;11.036;2023-06-04T09:04:32;20.70;92.00
5059;DHT22;2548;52.050;11.036;2023-06-04T09:07:05;20.80;91.70
5059;DHT22;2548;52.050;11.036;2023-06-04T09:09:38;20.90;90.50
5059;DHT22;2548;52.050;11.036;2023-06-04T09:12:10;21.00;89.00
5059;DHT22;2548;52.050;11.036;2023-06-04T09:14:38;21.20;89.40
5059;DHT22;2548;52.050;11.036;2023-06-04T09:17:08;21.20;89.10
5059;DHT22;2548;52.050;11.036;2023-06-04T09:19:36;21.30;86.90
5059;DHT22;2548;52.050;11.036;2023-06-04T09:22:10;21.40;89.00
5059;DHT22;2548;52.050;11.036;2023-06-04T09:24:42;21.50;87.00
5059;DHT22;2548;52.050;11.036;2023-06-04T09:27:16;21.60;85.70
5059;DHT22;2548;52.050;11.036;2023-06-04T09:29:54;21.80;87.40
5059;DHT22;2548;52.050;11.036;2023-06-04T09:32:22;21.90;86.30
5059;DHT22;2548;52.050;11.036;2023-06-04T09:34:50;21.90;83.70
5059;DHT22;2548;52.050;11.036;2023-06-04T09:37:20;22.10;85.60
5059;DHT22;2548;52.050;11.036;2023-06-04T09:39:55;22.20;86.10
5059;DHT22;2548;52.050;11.036;2023-06-04T09:42:23;22.30;85.30
5059;DHT22;2548;52.050;11.036;2023-06-04T09:44:51;22.50;85.20
5059;DHT22;2548;52.050;11.036;2023-06-04T09:47:19;22.50;84.10
5059;DHT22;2548;52.050;11.036;2023-06-04T09:49:47;22.60;82.70
5059;DHT22;2548;52.050;11.036;2023-06-04T09:52:36;22.60;82.20
5059;DHT22;2548;52.050;11.036;2023-06-04T09:55:16;22.50;82.60
5059;DHT22;2548;52.050;11.036;2023-06-04T09:57:55;22.50;82.70
5059;DHT22;2548;52.050;11.036;2023-06-04T10:00:23;22.60;84.20
5059;DHT22;2548;52.050;11.036;2023-06-04T10:02:56;22.80;84.20
5059;DHT22;2548;52.050;11.036;2023-06-04T10:05:25;22.80;80.50
5059;DHT22;2548;52.050;11.036;2023-06-04T10:07:59;22.90;80.50
5059;DHT22;2548;52.050;11.036;2023-06-04T10:10:38;23.00;84.60
5059;DHT22;2548;52.050;11.036;2023-06-04T10:13:14;23.00;82.90
5059;DHT22;2548;52.050;11.036;2023-06-04T10:15:46;23.10;80.90
5059;DHT22;2548;52.050;11.036;2023-06-04T10:18:23;23.30;83.70
5059;DHT22;2548;52.050;11.036;2023-06-04T10:20:55;23.30;80.90
5059;DHT22;2548;52.050;11.036;2023-06-04T10:23:25;23.50;80.20
5059;DHT22;2548;52.050;11.036;2023-06-04T10:25:52;23.50;82.40
5059;DHT22;2548;52.050;11.036;2023-06-04T10:28:21;23.50;78.90
5059;DHT22;2548;52.050;11.036;2023-06-04T10:30:50;23.20;79.60
5059;DHT22;2548;52.050;11.036;2023-06-04T10:33:21;23.30;78.70
5059;DHT22;2548;52.050;11.036;2023-06-04T10:35:54;23.30;79.10
5059;DHT22;2548;52.050;11.036;2023-06-04T10:38:22;23.40;77.80
5059;DHT22;2548;52.050;11.036;2023-06-04T10:40:52;23.50;79.10
5059;DHT22;2548;52.050;11.036;2023-06-04T10:43:20;23.50;77.70
5059;DHT22;2548;52.050;11.036;2023-06-04T10:45:54;23.60;81.60
5059;DHT22;2548;52.050;11.036;2023-06-04T10:48:22;23.90;78.60
5059;DHT22;2548;52.050;11.036;2023-06-04T10:50:52;24.20;78.80
5059;DHT22;2548;52.050;11.036;2023-06-04T10:53:20;24.30;78.60
5059;DHT22;2548;52.050;11.036;2023-06-04T10:55:56;24.40;77.80
5059;DHT22;2548;52.050;11.036;2023-06-04T10:58:34;24.10;78.30
5059;DHT22;2548;52.050;11.036;2023-06-04T11:01:03;24.00;77.20
5059;DHT22;2548;52.050;11.036;2023-06-04T11:03:37;24.00;78.40
5059;DHT22;2548;52.050;11.036;2023-06-04T11:06:15;24.10;75.20
5059;DHT22;2548;52.050;11.036;2023-06-04T11:08:44;24.20;74.90
5059;DHT22;2548;52.050;11.036;2023-06-04T11:11:13;24.30;72.50
5059;DHT22;2548;52.050;11.036;2023-06-04T11:13:41;24.30;74.30
5059;DHT22;2548;52.050;11.036;2023-06-04T11:16:16;24.30;73.70
5059;DHT22;2548;52.050;11.036;2023-06-04T11:18:54;24.30;74.80
5059;DHT22;2548;52.050;11.036;2023-06-04T11:21:25;24.30;76.20
5059;DHT22;2548;52.050;11.036;2023-06-04T11:23:56;24.40;72.70
5059;DHT22;2548;52.050;11.036;2023-06-04T11:26:31;24.40;74.80
5059;DHT22;2548;52.050;11.036;2023-06-04T11:28:59;24.60;74.80
5059;DHT22;2548;52.050;11.036;2023-06-04T11:31:27;24.90;76.80
5059;DHT22;2548;52.050;11.036;2023-06-04T11:33:55;24.90;76.30
5059;DHT22;2548;52.050;11.036;2023-06-04T11:36:28;24.80;74.30
5059;DHT22;2548;52.050;11.036;2023-06-04T11:38:58;24.90;75.80
5059;DHT22;2548;52.050;11.036;2023-06-04T11:41:27;24.90;72.10
5059;DHT22;2548;52.050;11.036;2023-06-04T11:43:57;24.60;72.20
5059;DHT22;2548;52.050;11.036;2023-06-04T11:46:25;24.60;73.20
5059;DHT22;2548;52.050;11.036;2023-06-04T11:48:53;24.60;72.80
5059;DHT22;2548;52.050;11.036;2023-06-04T11:51:21;24.70;74.80
5059;DHT22;2548;52.050;11.036;2023-06-04T11:53:49;24.50;72.30
5059;DHT22;2548;52.050;11.036;2023-06-04T11:56:17;24.60;74.70
5059;DHT22;2548;52.050;11.036;2023-06-04T11:58:45;24.70;71.80
5059;DHT22;2548;52.050;11.036;2023-06-04T12:01:14;24.70;70.80
5059;DHT22;2548;52.050;11.036;2023-06-04T12:03:43;24.50;71.40
5059;DHT22;2548;52.050;11.036;2023-06-04T12:06:12;24.60;73.30
5059;DHT22;2548;52.050;11.036;2023-06-04T12:08:50;24.70;70.20
5059;DHT22;2548;52.050;11.036;2023-06-04T12:11:26;24.50;72.10
5059;DHT22;2548;52.050;11.036;2023-06-04T12:13:55;24.50;70.70
5059;DHT22;2548;52.050;11.036;2023-06-04T12:16:28;24.60;72.10
5059;DHT22;2548;52.050;11.036;2023-06-04T12:19:08;24.70;72.40
5059;DHT22;2548;52.050;11.036;2023-06-04T12:21:39;24.50;72.10
5059;DHT22;2548;52.050;11.036;2023-06-04T12:24:12;24.50;71.80
5059;DHT22;2548;52.050;11.036;2023-06-04T12:26:41;24.60;70.10
5059;DHT22;2548;52.050;11.036;2023-06-04T12:29:11;24.80;70.20
5059;DHT22;2548;52.050;11.036;2023-06-04T12:31:42;25.00;71.00
5059;DHT22;2548;52.050;11.036;2023-06-04T12:34:10;25.30;72.90
5059;DHT22;2548;52.050;11.036;2023-06-04T12:36:41;25.50;68.80
5059;DHT22;2548;52.050;11.036;2023-06-04T12:39:09;25.40;70.60
5059;DHT22;2548;52.050;11.036;2023-06-04T12:41:37;25.30;69.60
5059;DHT22;2548;52.050;11.036;2023-06-04T12:44:07;25.30;69.60
5059;DHT22;2548;52.050;11.036;2023-06-04T12:46:37;25.40;69.20
5059;DHT22;2548;52.050;11.036;2023-06-04T12:49:08;25.60;72.10
5059;DHT22;2548;52.050;11.036;2023-06-04T12:51:39;25.60;70.50
5059;DHT22;2548;52.050;11.036;2023-06-04T12:54:10;25.60;70.60
5059;DHT22;2548;52.050;11.036;2023-06-04T12:56:39;25.70;70.30
5059;DHT22;2548;52.050;11.036;2023-06-04T12:59:07;25.70;69.00
5059;DHT22;2548;52.050;11.036;2023-06-04T13:01:34;25.70;68.50
5059;DHT22;2548;52.050;11.036;2023-06-04T13:04:05;25.80;66.50
5059;DHT22;2548;52.050;11.036;2023-06-04T13:06:35;25.80;66.90
5059;DHT22;2548;52.050;11.036;2023-06-04T13:09:04;25.70;67.20
5059;DHT22;2548;52.050;11.036;2023-06-04T13:11:36;25.50;65.80
5059;DHT22;2548;52.050;11.036;2023-06-04T13:14:07;25.30;66.30
5059;DHT22;2548;52.050;11.036;2023-06-04T13:16:41;25.20;65.40
5059;DHT22;2548;52.050;11.036;2023-06-04T13:19:09;25.30;68.20
5059;DHT22;2548;52.050;11.036;2023-06-04T13:21:38;25.50;70.40
5059;DHT22;2548;52.050;11.036;2023-06-04T13:24:12;25.70;65.50
5059;DHT22;2548;52.050;11.036;2023-06-04T13:26:39;25.70;65.30
5059;DHT22;2548;52.050;11.036;2023-06-04T13:29:08;25.90;68.50
5059;DHT22;2548;52.050;11.036;2023-06-04T13:31:44;26.20;69.10
5059;DHT22;2548;52.050;11.036;2023-06-04T13:34:12;26.30;67.20
5059;DHT22;2548;52.050;11.036;2023-06-04T13:36:44;26.20;66.90
5059;DHT22;2548;52.050;11.036;2023-06-04T13:39:12;26.20;66.60
5059;DHT22;2548;52.050;11.036;2023-06-04T13:41:39;26.30;65.40
5059;DHT22;2548;52.050;11.036;2023-06-04T13:44:11;26.40;67.40
5059;DHT22;2548;52.050;11.036;2023-06-04T13:46:48;26.60;64.30
5059;DHT22;2548;52.050;11.036;2023-06-04T13:49:16;26.60;64.10
5059;DHT22;2548;52.050;11.036;2023-06-04T13:51:45;26.40;64.10
5059;DHT22;2548;52.050;11.036;2023-06-04T13:54:12;26.30;63.10
5059;DHT22;2548;52.050;11.036;2023-06-04T13:56:43;26.30;64.20
5059;DHT22;2548;52.050;11.036;2023-06-04T13:59:11;26.30;64.60
5059;DHT22;2548;52.050;11.036;2023-06-04T14:01:40;26.20;62.90
5059;DHT22;2548;52.050;11.036;2023-06-04T14:04:10;26.40;65.00
5059;DHT22;2548;52.050;11.036;2023-06-04T14:06:38;26.30;66.10
5059;DHT22;2548;52.050;11.036;2023-06-04T14:09:09;26.10;61.60
5059;DHT22;2548;52.050;11.036;2023-06-04T14:11:39;26.00;61.00
5059;DHT22;2548;52.050;11.036;2023-06-04T14:14:06;25.90;63.20
5059;DHT22;2548;52.050;11.036;2023-06-04T14:16:36;26.10;65.10
5059;DHT22;2548;52.050;11.036;2023-06-04T14:19:07;26.30;63.40
5059;DHT22;2548;52.050;11.036;2023-06-04T14:21:35;26.20;63.50
5059;DHT22;2548;52.050;11.036;2023-06-04T14:24:10;26.10;62.80
5059;DHT22;2548;52.050;11.036;2023-06-04T14:26:38;26.20;63.50
5059;DHT22;2548;52.050;11.036;2023-06-04T14:29:06;25.80;60.40
5059;DHT22;2548;52.050;11.036;2023-06-04T14:31:36;25.70;61.10
5059;DHT22;2548;52.050;11.036;2023-06-04T14:34:07;25.60;60.70
5059;DHT22;2548;52.050;11.036;2023-06-04T14:36:35;25.60;61.20
5059;DHT22;2548;52.050;11.036;2023-06-04T14:39:05;25.90;63.90
5059;DHT22;2548;52.050;11.036;2023-06-04T14:41:40;25.80;61.50
5059;DHT22;2548;52.050;11.036;2023-06-04T14:44:11;26.00;62.80
5059;DHT22;2548;52.050;11.036;2023-06-04T14:46:39;26.10;61.80
5059;DHT22;2548;52.050;11.036;2023-06-04T14:49:13;26.00;63.00
5059;DHT22;2548;52.050;11.036;2023-06-04T14:51:41;26.00;61.00
5059;DHT22;2548;52.050;11.036;2023-06-04T14:54:11;25.80;62.30
5059;DHT22;2548;52.050;11.036;2023-06-04T14:56:40;26.00;63.70
5059;DHT22;2548;52.050;11.036;2023-06-04T14:59:09;26.10;63.00
5059;DHT22;2548;52.050;11.036;2023-06-04T15:01:38;26.20;61.20
5059;DHT22;2548;52.050;11.036;2023-06-04T15:04:07;26.20;61.00
5059;DHT22;2548;52.050;11.036;2023-06-04T15:06:35;26.30;63.00
5059;DHT22;2548;52.050;11.036;2023-06-04T15:09:03;26.30;63.70
5059;DHT22;2548;52.050;11.036;2023-06-04T15:11:31;26.40;64.20
5059;DHT22;2548;52.050;11.036;2023-06-04T15:14:00;26.50;63.60
5059;DHT22;2548;52.050;11.036;2023-06-04T15:16:27;26.40;63.30
5059;DHT22;2548;52.050;11.036;2023-06-04T15:18:55;26.10;63.40
5059;DHT22;2548;52.050;11.036;2023-06-04T15:21:31;26.10;63.00
5059;DHT22;2548;52.050;11.036;2023-06-04T15:23:59;26.20;66.50
5059;DHT22;2548;52.050;11.036;2023-06-04T15:26:27;26.40;64.60
5059;DHT22;2548;52.050;11.036;2023-06-04T15:28:57;26.40;64.00
5059;DHT22;2548;52.050;11.036;2023-06-04T15:31:36;26.40;63.40
5059;DHT22;2548;52.050;11.036;2023-06-04T15:34:03;26.40;66.60
5059;DHT22;2548;52.050;11.036;2023-06-04T15:36:31;26.50;65.60
5059;DHT22;2548;52.050;11.036;2023-06-04T15:38:58;26.50;63.90
5059;DHT22;2548;52.050;11.036;2023-06-04T15:41:26;26.60;65.30
5059;DHT22;2548;52.050;11.036;2023-06-04T15:43:57;26.50;64.80
5059;DHT22;2548;52.050;11.036;2023-06-04T15:46:24;26.40;65.60
5059;DHT22;2548;52.050;11.036;2023-06-04T15:48:56;26.50;63.80
5059;DHT22;2548;52.050;11.036;2023-06-04T15:51:26;26.40;64.20
5059;DHT22;2548;52.050;11.036;2023-06-04T15:53:57;26.10;63.60
5059;DHT22;2548;52.050;11.036;2023-06-04T15:56:24;25.90;63.50
5059;DHT22;2548;52.050;11.036;2023-06-04T15:58:55;26.00;63.90
5059;DHT22;2548;52.050;11.036;2023-06-04T16:01:26;26.10;65.00
5059;DHT22;2548;52.050;11.036;2023-06-04T16:03:57;26.20;64.40
5059;DHT22;2548;52.050;11.036;2023-06-04T16:06:25;26.20;64.80
5059;DHT22;2548;52.050;11.036;2023-06-04T16:08:52;26.20;64.30
5059;DHT22;2548;52.050;11.036;2023-06-04T16:11:23;26.10;65.00
5059;DHT22;2548;52.050;11.036;2023-06-04T16:13:52;26.00;62.80